Time;durP1;ratioP1;P1;durP2;ratioP2;P2;SDS_P1;SDS_P2;PMS_P1;PMS_P2;Temp;Humidity;BMP_temperature;BMP_pressure;BME280_temperature;BME280_humidity;BME280_pressure;Samples;Min_cycle;Max_cycle;Signal;HPM_P1;HPM_P2
2021/03/12 00:00:45;;;;;;;20.25;3.40;;;6.20;94.00;;;;;;4963439;28;20401;-86
2021/03/12 00:03:16;;;;;;;20.55;2.75;;;6.10;93.90;;;;;;4978355;28;20108;-83
2021/03/12 00:05:53;;;;;;;27.77;3.22;;;6.10;93.90;;;;;;4979519;28;20050;-86
2021/03/12 00:08:24;;;;;;;21.30;2.92;;;6.10;94.30;;;;;;4970672;28;20577;-84
2021/03/12 00:10:51;;;;;;;26.55;3.40;;;6.00;94.00;;;;;;4978144;28;20057;-85
2021/03/12 00:13:19;;;;;;;21.23;2.97;;;6.00;94.00;;;;;;4981974;28;20497;-85
2021/03/12 00:15:46;;;;;;;21.23;3.22;;;6.00;94.10;;;;;;4961879;28;20030;-85
2021/03/12 00:18:12;;;;;;;23.38;3.42;;;6.00;94.00;;;;;;4985319;28;20038;-85
2021/03/12 00:20:40;;;;;;;21.10;2.72;;;6.00;94.10;;;;;;4982778;28;20035;-84
2021/03/12 00:23:07;;;;;;;16.15;2.53;;;5.90;94.10;;;;;;4979493;28;20077;-84
2021/03/12 00:25:37;;;;;;;22.23;3.22;;;5.90;94.20;;;;;;4977650;28;21366;-85
2021/03/12 00:28:04;;;;;;;21.65;3.13;;;6.00;94.20;;;;;;4979777;28;20472;-87
2021/03/12 00:30:30;;;;;;;20.38;3.05;;;6.00;94.00;;;;;;4965004;28;20038;-85
2021/03/12 00:32:57;;;;;;;15.02;2.88;;;6.00;94.00;;;;;;4993952;28;20133;-88
2021/03/12 00:35:23;;;;;;;20.35;3.25;;;6.10;93.90;;;;;;4977542;28;20042;-89
2021/03/12 00:37:49;;;;;;;16.15;2.33;;;6.10;93.80;;;;;;4945106;28;20805;-86
2021/03/12 00:40:24;;;;;;;18.50;2.97;;;6.20;93.70;;;;;;4979535;28;20045;-86
2021/03/12 00:42:50;;;;;;;16.55;2.78;;;6.20;93.80;;;;;;4984665;28;20457;-85
2021/03/12 00:45:17;;;;;;;25.85;3.42;;;6.20;93.90;;;;;;4979256;28;20452;-86
2021/03/12 00:47:44;;;;;;;20.83;2.53;;;6.20;93.70;;;;;;4977889;28;20062;-86
2021/03/12 00:50:12;;;;;;;11.10;2.42;;;6.10;93.50;;;;;;4972858;28;20034;-87
2021/03/12 00:52:38;;;;;;;11.35;2.00;;;6.10;93.50;;;;;;4998689;28;20042;-88
2021/03/12 00:55:05;;;;;;;23.73;2.35;;;6.10;93.20;;;;;;4968627;28;20062;-87
2021/03/12 00:57:31;;;;;;;12.77;2.42;;;6.10;93.30;;;;;;4988693;28;20539;-84
2021/03/12 00:59:57;;;;;;;9.75;2.30;;;6.10;93.20;;;;;;4985748;28;20054;-85
2021/03/12 01:02:23;;;;;;;25.55;2.50;;;6.10;93.30;;;;;;4983793;28;20042;-86
2021/03/12 01:04:49;;;;;;;13.05;2.35;;;6.00;93.30;;;;;;4963997;28;20045;-86
2021/03/12 01:07:15;;;;;;;14.30;3.47;;;6.10;93.40;;;;;;4965564;28;20126;-85
2021/03/12 01:09:41;;;;;;;12.00;2.20;;;6.10;93.30;;;;;;4981397;28;20038;-88
2021/03/12 01:12:07;;;;;;;23.38;3.10;;;6.10;93.50;;;;;;5000611;28;20033;-83
2021/03/12 01:14:33;;;;;;;12.45;2.80;;;6.10;93.20;;;;;;4965887;28;20057;-86
2021/03/12 01:16:58;;;;;;;12.52;2.60;;;6.10;93.40;;;;;;4986757;28;20042;-85
2021/03/12 01:19:24;;;;;;;20.13;2.88;;;6.10;93.10;;;;;;4979278;28;20758;-84
2021/03/12 01:21:51;;;;;;;20.63;2.70;;;6.10;93.20;;;;;;4990509;28;20042;-85
2021/03/12 01:24:17;;;;;;;15.20;2.63;;;6.10;93.40;;;;;;4983944;28;20048;-86
2021/03/12 01:26:43;;;;;;;15.43;2.58;;;6.10;93.10;;;;;;4968200;28;20485;-89
2021/03/12 01:29:09;;;;;;;11.85;2.67;;;6.10;93.10;;;;;;4964599;28;20971;-85
2021/03/12 01:31:35;;;;;;;15.25;2.78;;;6.10;93.00;;;;;;4982298;28;20042;-85
2021/03/12 01:34:01;;;;;;;12.07;2.70;;;6.10;92.80;;;;;;4984357;28;20057;-87
2021/03/12 01:36:26;;;;;;;15.13;2.42;;;6.10;92.90;;;;;;4980505;28;20030;-85
2021/03/12 01:38:52;;;;;;;11.75;3.00;;;6.10;93.00;;;;;;4967286;28;20036;-85
2021/03/12 01:41:18;;;;;;;24.67;3.15;;;6.10;93.00;;;;;;4977979;28;20030;-83
2021/03/12 01:43:44;;;;;;;18.15;3.10;;;6.00;92.90;;;;;;4963469;28;20138;-84
2021/03/12 01:46:10;;;;;;;19.58;3.10;;;6.10;93.20;;;;;;4946763;28;20041;-84
2021/03/12 01:48:36;;;;;;;17.13;3.28;;;6.10;93.10;;;;;;4995520;28;20034;-84
2021/03/12 01:51:04;;;;;;;9.52;2.42;;;6.00;93.40;;;;;;4979594;28;20030;-85
2021/03/12 01:53:36;;;;;;;13.95;2.33;;;6.00;92.90;;;;;;4977023;28;20046;-85
2021/03/12 01:56:06;;;;;;;12.18;3.17;;;6.00;92.90;;;;;;4971158;28;20117;-85
2021/03/12 01:58:32;;;;;;;14.20;2.88;;;6.00;92.80;;;;;;4996726;28;20049;-83
2021/03/12 02:00:58;;;;;;;17.15;2.80;;;5.90;92.60;;;;;;4967375;28;20443;-85
2021/03/12 02:03:30;;;;;;;12.43;2.90;;;5.90;92.50;;;;;;4982230;28;20038;-87
2021/03/12 02:05:56;;;;;;;17.33;2.45;;;5.90;92.50;;;;;;4996166;28;20047;-85
2021/03/12 02:08:22;;;;;;;15.38;2.63;;;5.90;92.60;;;;;;4979553;28;20046;-84
2021/03/12 02:10:49;;;;;;;22.80;3.25;;;5.80;92.90;;;;;;4981224;28;20136;-85
2021/03/12 02:13:34;;;;;;;12.55;2.67;;;5.80;92.90;;;;;;4963698;28;20042;-85
2021/03/12 02:16:22;;;;;;;18.90;3.13;;;5.80;92.90;;;;;;4998545;28;20049;-86
2021/03/12 02:19:07;;;;;;;15.00;2.85;;;5.80;93.00;;;;;;4996725;28;20027;-86
2021/03/12 02:21:42;;;;;;;17.27;3.40;;;5.80;92.90;;;;;;4979969;28;20117;-83
2021/03/12 02:24:17;;;;;;;13.43;3.75;;;5.90;92.90;;;;;;4980601;28;20053;-85
2021/03/12 02:26:43;;;;;;;14.20;3.13;;;5.80;92.90;;;;;;4978937;28;20031;-84
2021/03/12 02:29:40;;;;;;;17.05;3.13;;;5.80;92.90;;;;;;4978820;28;20442;-84
2021/03/12 02:32:08;;;;;;;15.85;3.30;;;5.90;92.80;;;;;;4978996;28;20050;-84
2021/03/12 02:34:40;;;;;;;15.00;3.40;;;5.80;93.00;;;;;;4991995;28;20052;-86
2021/03/12 02:37:07;;;;;;;14.98;3.45;;;5.80;92.90;;;;;;4981523;28;20228;-86
2021/03/12 02:39:38;;;;;;;16.15;2.83;;;5.80;93.00;;;;;;4997450;28;20057;-84
2021/03/12 02:42:04;;;;;;;14.00;2.55;;;5.80;92.90;;;;;;4984867;28;20121;-84
2021/03/12 02:44:33;;;;;;;10.95;2.97;;;5.80;93.00;;;;;;4965661;28;20166;-87
2021/03/12 02:47:14;;;;;;;12.95;2.92;;;5.70;93.10;;;;;;4978638;28;20034;-85
2021/03/12 02:49:40;;;;;;;14.52;3.25;;;5.70;92.80;;;;;;4995174;28;20160;-86
2021/03/12 02:52:07;;;;;;;13.23;2.83;;;5.70;92.90;;;;;;4965571;28;20074;-87
2021/03/12 02:54:33;;;;;;;19.35;2.50;;;5.60;93.00;;;;;;4980372;28;20180;-85
2021/03/12 02:56:59;;;;;;;13.35;2.53;;;5.60;92.80;;;;;;4982283;28;20072;-83
2021/03/12 02:59:26;;;;;;;12.90;2.33;;;5.50;92.90;;;;;;4980671;28;20030;-86
2021/03/12 03:01:53;;;;;;;12.40;2.95;;;5.50;92.80;;;;;;4962809;28;20038;-87
2021/03/12 03:04:21;;;;;;;12.55;2.70;;;5.40;92.90;;;;;;4981768;28;20053;-83
2021/03/12 03:06:47;;;;;;;11.50;2.45;;;5.40;93.10;;;;;;4977773;28;20066;-86
2021/03/12 03:09:15;;;;;;;10.65;2.63;;;5.30;93.10;;;;;;4979938;28;20064;-85
2021/03/12 03:11:41;;;;;;;14.98;3.20;;;5.40;92.90;;;;;;4980712;28;21253;-85
2021/03/12 03:14:08;;;;;;;17.23;2.80;;;5.40;93.10;;;;;;4974374;28;20042;-85
2021/03/12 03:16:36;;;;;;;14.55;3.22;;;5.40;92.90;;;;;;4982364;28;20551;-82
2021/03/12 03:19:07;;;;;;;17.55;3.33;;;5.40;93.00;;;;;;4989112;28;20467;-83
2021/03/12 03:21:34;;;;;;;10.98;2.70;;;5.40;92.90;;;;;;4984856;28;20077;-82
2021/03/12 03:24:00;;;;;;;13.30;3.03;;;5.40;92.90;;;;;;4983691;28;20038;-84
2021/03/12 03:26:26;;;;;;;14.02;2.60;;;5.30;92.90;;;;;;4987287;28;20035;-84
2021/03/12 03:28:53;;;;;;;13.48;2.53;;;5.30;92.90;;;;;;4943318;28;20043;-83
2021/03/12 03:31:21;;;;;;;10.45;2.50;;;5.20;93.00;;;;;;4983189;28;20090;-84
2021/03/12 03:33:46;;;;;;;24.13;3.08;;;5.20;93.00;;;;;;4985814;28;20319;-85
2021/03/12 03:36:13;;;;;;;14.70;3.83;;;5.20;92.90;;;;;;4968131;28;20046;-86
2021/03/12 03:38:39;;;;;;;20.67;2.65;;;5.10;93.10;;;;;;4981769;28;20057;-84
2021/03/12 03:41:08;;;;;;;12.02;2.33;;;5.10;93.00;;;;;;4965488;28;20061;-84
2021/03/12 03:43:38;;;;;;;22.63;3.85;;;5.10;93.10;;;;;;4981197;28;21124;-82
2021/03/12 03:46:07;;;;;;;19.58;2.83;;;5.10;93.10;;;;;;4985029;28;20042;-85
2021/03/12 03:48:35;;;;;;;10.77;2.40;;;5.00;93.10;;;;;;4960747;28;20424;-83
2021/03/12 03:51:05;;;;;;;14.32;2.72;;;5.00;93.00;;;;;;4998531;28;20035;-82
2021/03/12 03:53:31;;;;;;;15.55;2.70;;;5.00;93.10;;;;;;4998167;28;20480;-84
2021/03/12 03:56:02;;;;;;;16.20;3.33;;;4.90;93.10;;;;;;4983327;28;20092;-84
2021/03/12 03:58:29;;;;;;;20.15;3.03;;;4.90;93.20;;;;;;4996046;28;20093;-84
2021/03/12 04:00:56;;;;;;;15.02;2.85;;;4.90;93.20;;;;;;4981073;28;20298;-86
2021/03/12 04:03:25;;;;;;;19.83;2.55;;;4.90;93.20;;;;;;4995213;28;20053;-85
2021/03/12 04:05:54;;;;;;;10.57;2.15;;;4.90;93.20;;;;;;4964811;28;20143;-85
2021/03/12 04:08:21;;;;;;;13.23;2.80;;;4.90;93.20;;;;;;4981143;28;20034;-85
2021/03/12 04:10:48;;;;;;;19.20;2.30;;;4.80;93.30;;;;;;4991807;28;20046;-83
2021/03/12 04:13:14;;;;;;;19.13;2.83;;;4.80;93.30;;;;;;4965140;28;20758;-84
2021/03/12 04:15:40;;;;;;;15.95;2.22;;;4.80;93.40;;;;;;4952616;28;20050;-85
2021/03/12 04:18:06;;;;;;;14.23;2.97;;;4.70;93.40;;;;;;4978775;28;20402;-85
2021/03/12 04:20:32;;;;;;;18.90;2.58;;;4.70;93.40;;;;;;4945915;28;20073;-86
2021/03/12 04:22:58;;;;;;;21.33;2.78;;;4.60;93.50;;;;;;4944376;28;20100;-84
2021/03/12 04:25:25;;;;;;;17.50;2.38;;;4.60;93.50;;;;;;4961172;28;20046;-84
2021/03/12 04:27:52;;;;;;;16.05;2.50;;;4.70;93.50;;;;;;4972199;28;20042;-86
2021/03/12 04:30:18;;;;;;;19.23;2.45;;;4.60;93.40;;;;;;4957315;28;20026;-83
2021/03/12 04:32:47;;;;;;;18.55;2.80;;;4.60;93.40;;;;;;4966735;28;20043;-82
2021/03/12 04:35:13;;;;;;;11.93;2.40;;;4.60;93.30;;;;;;4981259;28;20065;-83
2021/03/12 04:37:40;;;;;;;11.27;1.83;;;4.60;93.50;;;;;;4980585;28;20034;-84
2021/03/12 04:40:07;;;;;;;14.80;2.30;;;4.60;93.50;;;;;;4966078;28;20034;-84
2021/03/12 04:42:34;;;;;;;19.77;2.60;;;4.70;93.50;;;;;;4965586;28;20381;-83
2021/03/12 04:45:02;;;;;;;19.00;2.22;;;4.60;93.40;;;;;;4996114;28;20037;-85
2021/03/12 04:47:29;;;;;;;20.73;2.85;;;4.60;93.40;;;;;;4988467;28;20066;-83
2021/03/12 04:49:55;;;;;;;17.52;2.10;;;4.60;93.30;;;;;;4993417;28;20030;-83
2021/03/12 04:52:20;;;;;;;17.70;2.70;;;4.60;93.30;;;;;;4980679;28;20401;-82
2021/03/12 04:54:47;;;;;;;11.25;1.98;;;4.60;93.40;;;;;;4977810;28;20271;-83
2021/03/12 04:57:17;;;;;;;22.77;2.67;;;4.70;93.40;;;;;;4981370;28;20609;-85
2021/03/12 04:59:44;;;;;;;18.05;2.17;;;4.60;93.30;;;;;;4964197;28;20457;-83
2021/03/12 05:02:12;;;;;;;16.85;2.58;;;4.60;93.20;;;;;;4981199;28;20038;-85
2021/03/12 05:04:40;;;;;;;24.35;3.10;;;4.70;93.40;;;;;;4981340;28;20465;-83
2021/03/12 05:07:07;;;;;;;13.75;2.58;;;4.60;93.30;;;;;;4994430;28;20493;-82
2021/03/12 05:09:33;;;;;;;14.70;3.17;;;4.60;93.20;;;;;;4980992;28;20531;-81
2021/03/12 05:11:59;;;;;;;12.93;2.10;;;4.60;93.20;;;;;;4975827;28;20039;-87
2021/03/12 05:14:24;;;;;;;18.58;2.35;;;4.60;93.20;;;;;;4965272;28;20057;-84
2021/03/12 05:16:50;;;;;;;18.90;2.88;;;4.60;93.30;;;;;;4982674;28;20057;-84
2021/03/12 05:19:16;;;;;;;13.07;2.25;;;4.60;93.20;;;;;;4962239;28;20409;-84
2021/03/12 05:21:42;;;;;;;17.48;2.60;;;4.60;93.20;;;;;;4962521;28;20050;-84
2021/03/12 05:24:08;;;;;;;13.38;2.17;;;4.60;93.20;;;;;;4956038;28;20747;-82
2021/03/12 05:26:34;;;;;;;15.88;2.25;;;4.70;93.20;;;;;;4979549;28;20092;-81
2021/03/12 05:29:00;;;;;;;18.63;2.20;;;4.70;93.10;;;;;;4978788;28;20445;-81
2021/03/12 05:31:27;;;;;;;21.60;2.88;;;4.70;93.20;;;;;;4961756;28;20026;-82
2021/03/12 05:33:54;;;;;;;18.33;2.33;;;4.70;93.10;;;;;;4954999;28;20505;-84
2021/03/12 05:36:21;;;;;;;15.43;2.33;;;4.70;93.20;;;;;;4986100;28;20035;-82
2021/03/12 05:38:47;;;;;;;12.05;2.20;;;4.80;93.20;;;;;;4984416;28;20038;-81
2021/03/12 05:41:14;;;;;;;17.52;2.53;;;4.70;93.20;;;;;;4970937;28;20532;-83
2021/03/12 05:43:42;;;;;;;16.05;2.75;;;4.70;93.50;;;;;;4973824;28;20038;-84
2021/03/12 05:46:09;;;;;;;29.10;5.38;;;4.70;93.20;;;;;;4981902;28;20034;-86
2021/03/12 05:48:36;;;;;;;19.55;2.42;;;4.80;93.30;;;;;;4982063;28;20654;-81
2021/03/12 05:51:02;;;;;;;17.30;2.50;;;4.70;93.20;;;;;;4984799;28;20538;-84
2021/03/12 05:53:29;;;;;;;15.93;2.40;;;4.70;93.20;;;;;;4985238;28;20062;-83
2021/03/12 05:55:55;;;;;;;16.38;2.55;;;4.80;93.30;;;;;;4988956;28;20105;-83
2021/03/12 05:58:24;;;;;;;21.08;2.42;;;4.70;93.20;;;;;;4988721;28;20121;-84
2021/03/12 06:00:51;;;;;;;18.15;2.70;;;4.80;93.30;;;;;;4971138;28;20038;-82
2021/03/12 06:03:17;;;;;;;16.65;2.67;;;4.80;93.30;;;;;;4992568;28;20585;-84
2021/03/12 06:05:44;;;;;;;18.33;2.58;;;4.80;93.30;;;;;;4965769;28;20050;-83
2021/03/12 06:08:11;;;;;;;19.17;2.88;;;4.70;93.20;;;;;;4980315;28;20035;-83
2021/03/12 06:10:37;;;;;;;17.27;2.60;;;4.80;93.30;;;;;;4983462;28;20038;-83
2021/03/12 06:13:03;;;;;;;22.70;2.97;;;4.80;93.20;;;;;;4980265;28;20130;-83
2021/03/12 06:15:43;;;;;;;20.13;2.53;;;4.90;93.10;;;;;;4987805;28;20066;-84
2021/03/12 06:18:24;;;;;;;14.80;2.38;;;4.90;93.20;;;;;;4978887;28;21750;-84
2021/03/12 06:20:51;;;;;;;13.55;2.90;;;4.90;93.20;;;;;;4984304;28;20129;-83
2021/03/12 06:23:38;;;;;;;14.13;2.30;;;4.80;93.20;;;;;;4990830;28;20036;-82
2021/03/12 06:26:04;;;;;;;17.65;2.50;;;4.90;93.00;;;;;;4995923;28;20046;-85
2021/03/12 06:28:31;;;;;;;16.83;2.83;;;4.90;93.20;;;;;;4979892;28;20108;-84
2021/03/12 06:30:58;;;;;;;22.90;3.08;;;4.90;93.20;;;;;;4984537;28;20039;-84
2021/03/12 06:33:28;;;;;;;23.67;2.50;;;5.00;93.20;;;;;;4981885;28;20057;-83
2021/03/12 06:35:55;;;;;;;16.80;3.08;;;5.00;93.10;;;;;;4985488;28;20057;-83
2021/03/12 06:38:22;;;;;;;25.95;3.28;;;5.10;93.10;;;;;;4981722;28;20085;-84
2021/03/12 06:40:48;;;;;;;14.82;2.47;;;5.10;93.20;;;;;;4980865;28;20401;-84
2021/03/12 06:43:19;;;;;;;22.95;2.70;;;5.20;93.10;;;;;;4962726;28;20050;-81
2021/03/12 06:45:54;;;;;;;20.55;2.90;;;5.20;93.00;;;;;;4991237;28;20081;-83
2021/03/12 06:48:31;;;;;;;25.00;2.95;;;5.30;92.90;;;;;;4980477;28;20041;-83
2021/03/12 06:51:03;;;;;;;16.73;2.50;;;5.30;93.00;;;;;;4980645;28;20243;-85
2021/03/12 06:53:38;;;;;;;20.15;2.45;;;5.30;92.80;;;;;;4980009;28;20087;-84
2021/03/12 06:56:13;;;;;;;20.20;2.85;;;5.30;92.80;;;;;;4996901;28;20112;-85
2021/03/12 06:58:56;;;;;;;19.05;2.45;;;5.30;92.80;;;;;;4981496;28;20046;-84
2021/03/12 07:01:22;;;;;;;18.45;2.97;;;5.40;92.70;;;;;;4964899;28;20038;-84
2021/03/12 07:04:14;;;;;;;16.60;2.90;;;5.40;92.60;;;;;;4981789;28;20042;-85
2021/03/12 07:06:45;;;;;;;21.42;2.58;;;5.50;92.50;;;;;;4981021;28;20045;-85
2021/03/12 07:09:12;;;;;;;16.48;2.80;;;5.50;92.50;;;;;;4993780;28;20039;-84
2021/03/12 07:11:38;;;;;;;20.05;3.03;;;5.60;92.40;;;;;;4964589;28;20044;-86
2021/03/12 07:14:05;;;;;;;22.95;3.08;;;5.60;92.30;;;;;;4975538;28;20122;-85
2021/03/12 07:16:31;;;;;;;17.73;3.10;;;5.60;92.30;;;;;;4978948;28;20097;-84
2021/03/12 07:18:57;;;;;;;19.95;3.45;;;5.70;92.20;;;;;;4960215;28;20034;-84
2021/03/12 07:21:28;;;;;;;14.65;3.28;;;5.70;92.30;;;;;;4961685;28;20258;-82
2021/03/12 07:23:58;;;;;;;27.35;3.75;;;5.70;92.40;;;;;;4979309;28;20042;-86
2021/03/12 07:26:26;;;;;;;17.98;3.03;;;5.70;92.20;;;;;;4987330;28;20041;-82
2021/03/12 07:28:59;;;;;;;15.13;3.28;;;5.80;92.20;;;;;;4979040;28;20030;-84
2021/03/12 07:31:37;;;;;;;18.58;3.03;;;5.80;92.40;;;;;;4983826;28;20046;-81
2021/03/12 07:34:26;;;;;;;21.20;3.47;;;5.80;92.20;;;;;;4980507;28;20045;-82
2021/03/12 07:36:57;;;;;;;18.27;3.75;;;5.90;92.00;;;;;;5000962;28;20513;-83
2021/03/12 07:39:36;;;;;;;19.88;3.30;;;5.90;91.90;;;;;;4964961;28;20099;-83
2021/03/12 07:42:03;;;;;;;16.55;3.33;;;6.00;92.00;;;;;;4981056;28;20464;-83
2021/03/12 07:44:30;;;;;;;14.35;2.97;;;6.00;91.90;;;;;;4991448;28;20580;-88
2021/03/12 07:46:56;;;;;;;18.02;3.40;;;6.00;91.70;;;;;;4983201;28;20042;-86
2021/03/12 07:49:42;;;;;;;16.88;3.20;;;6.00;92.00;;;;;;4965769;28;20049;-82
2021/03/12 07:52:08;;;;;;;18.05;3.38;;;6.10;91.60;;;;;;4983016;28;20036;-84
2021/03/12 07:54:37;;;;;;;18.27;4.50;;;6.10;91.80;;;;;;4998499;28;20035;-84
2021/03/12 07:57:10;;;;;;;20.50;3.75;;;6.10;91.70;;;;;;4982598;28;20404;-83
2021/03/12 07:59:48;;;;;;;24.15;4.22;;;6.10;91.30;;;;;;4982285;28;20042;-84
2021/03/12 08:02:15;;;;;;;12.02;2.67;;;6.20;91.50;;;;;;4998787;28;20064;-82
2021/03/12 08:04:42;;;;;;;15.35;2.97;;;6.20;91.60;;;;;;4995360;28;20489;-82
2021/03/12 08:07:17;;;;;;;19.80;3.72;;;6.20;91.40;;;;;;4987003;28;20412;-82
2021/03/12 08:09:45;;;;;;;22.00;3.00;;;6.30;91.20;;;;;;4978329;28;20034;-83
2021/03/12 08:12:33;;;;;;;13.60;2.85;;;6.30;91.30;;;;;;4963145;28;20520;-83
2021/03/12 08:15:38;;;;;;;12.38;2.42;;;6.30;90.90;;;;;;4999813;28;20039;-83
2021/03/12 08:18:04;;;;;;;24.15;3.40;;;6.40;90.70;;;;;;4983985;28;20050;-82
2021/03/12 08:20:44;;;;;;;16.20;3.75;;;6.50;91.50;;;;;;4984747;28;20408;-86
2021/03/12 08:23:30;;;;;;;18.17;3.15;;;6.50;91.10;;;;;;4983142;28;20027;-85
2021/03/12 08:25:56;;;;;;;14.75;3.60;;;6.50;90.90;;;;;;4983346;28;20050;-84
2021/03/12 08:28:27;;;;;;;16.80;3.90;;;6.60;90.90;;;;;;4979238;28;20116;-84
2021/03/12 08:30:55;;;;;;;18.55;3.35;;;6.60;90.70;;;;;;4969256;28;20446;-83
2021/03/12 08:33:21;;;;;;;19.98;3.13;;;6.70;90.70;;;;;;4983046;28;20042;-85
2021/03/12 08:35:48;;;;;;;14.88;2.75;;;6.80;90.80;;;;;;4985468;28;20473;-85
2021/03/12 08:38:24;;;;;;;18.42;2.90;;;6.80;90.50;;;;;;4967084;28;20035;-84
2021/03/12 08:41:00;;;;;;;11.25;2.40;;;6.80;90.10;;;;;;4984243;28;20084;-82
2021/03/12 08:43:31;;;;;;;10.55;2.78;;;6.90;90.10;;;;;;4984804;28;20039;-82
2021/03/12 08:46:16;;;;;;;16.48;2.80;;;6.90;90.50;;;;;;4982604;28;20117;-84
2021/03/12 08:48:44;;;;;;;18.20;3.15;;;7.00;90.70;;;;;;4976486;28;20035;-85
2021/03/12 08:51:17;;;;;;;15.95;2.38;;;7.00;90.50;;;;;;4983083;28;20038;-85
2021/03/12 08:53:48;;;;;;;10.15;2.40;;;7.10;89.20;;;;;;4977349;28;20041;-84
2021/03/12 08:56:21;;;;;;;12.05;3.03;;;7.10;90.00;;;;;;5002974;28;20041;-85
2021/03/12 08:58:47;;;;;;;20.02;2.88;;;7.10;89.40;;;;;;4982243;28;20049;-83
2021/03/12 09:01:19;;;;;;;14.77;2.70;;;7.10;89.80;;;;;;4998101;28;20065;-86
2021/03/12 09:04:06;;;;;;;17.42;3.25;;;7.10;88.70;;;;;;4982674;28;20073;-83
2021/03/12 09:06:51;;;;;;;19.80;2.90;;;7.10;89.70;;;;;;4992942;28;20180;-85
2021/03/12 09:09:38;;;;;;;12.13;2.35;;;7.10;90.20;;;;;;4968289;28;20513;-83
2021/03/12 09:12:24;;;;;;;19.38;2.90;;;7.20;89.70;;;;;;4969133;28;20034;-82
2021/03/12 09:15:12;;;;;;;15.38;2.95;;;7.30;89.90;;;;;;4968670;28;20030;-85
2021/03/12 09:17:38;;;;;;;17.75;3.38;;;7.30;89.90;;;;;;4980555;28;20792;-87
2021/03/12 09:20:05;;;;;;;13.85;3.50;;;7.30;89.70;;;;;;4965246;28;20050;-86
2021/03/12 09:22:32;;;;;;;14.07;2.85;;;7.30;89.80;;;;;;4961311;28;20690;-83
2021/03/12 09:25:01;;;;;;;16.98;2.63;;;7.40;89.80;;;;;;4987410;28;20046;-83
2021/03/12 09:27:26;;;;;;;16.35;3.15;;;7.40;90.00;;;;;;4983128;28;20038;-84
2021/03/12 09:29:52;;;;;;;19.67;3.10;;;7.40;89.20;;;;;;4971912;28;20030;-83
2021/03/12 09:32:18;;;;;;;18.88;3.20;;;7.40;89.60;;;;;;4981155;28;20042;-83
2021/03/12 09:34:44;;;;;;;18.13;3.17;;;7.40;89.80;;;;;;4987284;28;20481;-82
2021/03/12 09:37:10;;;;;;;21.45;3.53;;;7.40;89.20;;;;;;4976052;28;20045;-82
2021/03/12 09:39:40;;;;;;;17.88;3.85;;;7.50;89.00;;;;;;4986538;28;20382;-84
2021/03/12 09:42:11;;;;;;;15.55;3.28;;;7.60;89.00;;;;;;4978072;28;21251;-82
2021/03/12 09:44:38;;;;;;;24.55;3.90;;;7.60;88.90;;;;;;4987099;28;20045;-83
2021/03/12 09:47:07;;;;;;;22.00;4.25;;;7.70;89.60;;;;;;4965433;28;20097;-84
2021/03/12 09:49:42;;;;;;;18.90;3.55;;;7.70;89.00;;;;;;4982033;28;22016;-84
2021/03/12 09:52:12;;;;;;;22.25;3.50;;;7.70;87.40;;;;;;4974335;28;20093;-83
2021/03/12 09:54:39;;;;;;;21.88;3.72;;;7.80;88.20;;;;;;4983122;28;20058;-85
2021/03/12 09:57:06;;;;;;;19.15;3.13;;;7.80;88.30;;;;;;4971379;28;20094;-84
2021/03/12 09:59:35;;;;;;;21.75;3.63;;;7.90;88.00;;;;;;4968876;28;20042;-82
2021/03/12 10:02:09;;;;;;;19.13;2.75;;;7.90;88.20;;;;;;4983538;28;20046;-81
2021/03/12 10:04:38;;;;;;;15.52;2.63;;;8.00;87.90;;;;;;4983470;28;20126;-83
2021/03/12 10:07:10;;;;;;;27.20;3.58;;;8.00;87.40;;;;;;4984354;28;20094;-82
2021/03/12 10:09:39;;;;;;;18.20;3.28;;;7.90;87.00;;;;;;4991004;28;20041;-84
2021/03/12 10:12:14;;;;;;;22.08;3.47;;;8.00;87.60;;;;;;4985323;28;20030;-84
2021/03/12 10:14:42;;;;;;;17.92;3.30;;;8.00;87.50;;;;;;4983387;28;20037;-83
2021/03/12 10:17:08;;;;;;;24.83;4.13;;;8.00;88.50;;;;;;4971859;28;20042;-84
2021/03/12 10:19:52;;;;;;;21.63;4.05;;;8.10;88.20;;;;;;4971086;28;20054;-85
2021/03/12 10:22:32;;;;;;;30.02;4.50;;;8.10;87.50;;;;;;4985631;28;20050;-83
2021/03/12 10:25:01;;;;;;;24.45;3.83;;;8.10;86.30;;;;;;5001982;28;20046;-83
2021/03/12 10:27:33;;;;;;;19.58;3.83;;;8.00;88.20;;;;;;4981171;28;20149;-82
2021/03/12 10:30:04;;;;;;;21.00;3.78;;;8.10;86.60;;;;;;4997303;28;20355;-84
2021/03/12 10:32:30;;;;;;;19.42;3.58;;;8.20;87.10;;;;;;4978663;28;20134;-82
2021/03/12 10:34:57;;;;;;;20.98;3.92;;;8.40;87.40;;;;;;4971820;28;20034;-82
2021/03/12 10:37:24;;;;;;;23.50;4.30;;;8.60;87.40;;;;;;4965719;28;20121;-82
2021/03/12 10:39:52;;;;;;;25.00;3.83;;;8.80;87.30;;;;;;4993877;28;20059;-86
2021/03/12 10:42:28;;;;;;;17.17;3.58;;;9.10;86.10;;;;;;4977835;28;20030;-86
2021/03/12 10:45:06;;;;;;;18.02;3.75;;;9.20;83.60;;;;;;4977512;28;20034;-82
2021/03/12 10:47:32;;;;;;;26.27;4.32;;;9.40;82.50;;;;;;4968242;28;21744;-84
2021/03/12 10:49:58;;;;;;;19.98;3.50;;;9.50;84.40;;;;;;4993824;28;20046;-86
2021/03/12 10:52:27;;;;;;;29.15;4.43;;;9.40;83.80;;;;;;4958288;28;20070;-83
2021/03/12 10:54:55;;;;;;;23.17;3.63;;;9.40;84.40;;;;;;4997982;28;20030;-86
2021/03/12 10:57:58;;;;;;;21.33;3.35;;;9.30;83.40;;;;;;4977882;28;20030;-83
2021/03/12 11:00:24;;;;;;;19.35;4.13;;;9.10;78.30;;;;;;4947737;28;20046;-84
2021/03/12 11:02:50;;;;;;;23.90;3.22;;;9.00;84.80;;;;;;4965490;28;20084;-82
2021/03/12 11:05:17;;;;;;;20.58;3.45;;;8.90;84.80;;;;;;4965287;28;20061;-85
2021/03/12 11:07:45;;;;;;;17.00;3.40;;;8.90;85.60;;;;;;4965871;28;20038;-82
2021/03/12 11:10:12;;;;;;;18.83;3.33;;;8.80;85.20;;;;;;4965471;28;20046;-83
2021/03/12 11:12:42;;;;;;;23.85;4.03;;;8.80;84.60;;;;;;4968612;28;20042;-82
2021/03/12 11:15:09;;;;;;;24.88;4.45;;;8.80;84.50;;;;;;4985879;28;20406;-84
2021/03/12 11:17:37;;;;;;;21.50;4.25;;;8.80;85.60;;;;;;5000661;28;20046;-82
2021/03/12 11:20:06;;;;;;;18.08;5.10;;;8.70;86.00;;;;;;4984637;28;20393;-80
2021/03/12 11:22:33;;;;;;;26.08;3.72;;;8.60;84.60;;;;;;4965601;28;20050;-81
2021/03/12 11:24:59;;;;;;;19.13;4.25;;;8.50;86.40;;;;;;4982829;28;20425;-81
2021/03/12 11:27:26;;;;;;;23.17;4.10;;;8.30;87.00;;;;;;4965210;28;20038;-84
2021/03/12 11:29:54;;;;;;;24.20;4.75;;;8.10;87.20;;;;;;4963971;28;20034;-83
2021/03/12 11:32:20;;;;;;;19.88;3.80;;;7.90;89.00;;;;;;4978936;28;20103;-83
2021/03/12 11:34:46;;;;;;;21.08;4.45;;;7.80;89.70;;;;;;4976120;28;20522;-84
2021/03/12 11:37:12;;;;;;;21.63;4.57;;;7.70;90.00;;;;;;4963805;28;20081;-84
2021/03/12 11:39:38;;;;;;;23.65;4.40;;;7.50;90.20;;;;;;4964332;28;20512;-84
2021/03/12 11:42:04;;;;;;;21.35;4.32;;;7.40;90.50;;;;;;4981318;28;20034;-84
2021/03/12 11:44:31;;;;;;;20.25;3.90;;;7.30;91.00;;;;;;4968938;28;20124;-82
2021/03/12 11:46:57;;;;;;;18.50;3.83;;;7.00;91.20;;;;;;4963953;28;20489;-85
2021/03/12 11:49:23;;;;;;;23.52;5.20;;;6.80;91.60;;;;;;4965152;28;20044;-84
2021/03/12 11:51:52;;;;;;;14.32;4.15;;;6.60;92.10;;;;;;4964628;28;20038;-80
2021/03/12 11:54:19;;;;;;;15.80;3.80;;;6.50;92.50;;;;;;4979269;28;20041;-90
2021/03/12 11:56:45;;;;;;;17.50;4.00;;;6.30;92.70;;;;;;4982682;28;20077;-84
2021/03/12 11:59:12;;;;;;;13.68;3.95;;;6.10;93.10;;;;;;4978586;28;20038;-83
2021/03/12 12:01:38;;;;;;;23.92;4.82;;;6.00;93.50;;;;;;4965935;28;20844;-82
2021/03/12 12:04:04;;;;;;;24.77;5.93;;;5.90;93.80;;;;;;4971833;28;20068;-85
2021/03/12 12:06:30;;;;;;;15.05;4.72;;;5.90;94.20;;;;;;4989515;28;20031;-82
2021/03/12 12:08:55;;;;;;;19.80;5.38;;;5.90;94.20;;;;;;4977379;28;20107;-85
2021/03/12 12:11:21;;;;;;;20.08;5.50;;;5.90;94.30;;;;;;4983177;28;20517;-84
2021/03/12 12:13:47;;;;;;;17.65;5.20;;;6.00;94.50;;;;;;4980595;28;20045;-84
2021/03/12 12:16:13;;;;;;;15.98;4.65;;;6.00;94.70;;;;;;4965377;28;20085;-84
2021/03/12 12:18:38;;;;;;;14.95;4.00;;;6.00;94.60;;;;;;4945797;28;20064;-86
2021/03/12 12:21:04;;;;;;;14.68;4.32;;;6.10;94.70;;;;;;4972608;28;20030;-86
2021/03/12 12:23:30;;;;;;;15.05;4.22;;;6.10;94.60;;;;;;4959051;28;20062;-84
2021/03/12 12:25:57;;;;;;;14.40;4.95;;;6.10;94.50;;;;;;4978412;28;20113;-86
2021/03/12 12:28:23;;;;;;;14.27;4.55;;;6.20;94.70;;;;;;4965097;28;20413;-84
2021/03/12 12:30:49;;;;;;;17.95;5.13;;;6.20;94.70;;;;;;4985026;28;20049;-84
2021/03/12 12:33:14;;;;;;;18.05;5.68;;;6.20;94.70;;;;;;4949147;28;20103;-82
2021/03/12 12:35:40;;;;;;;21.27;5.10;;;6.20;94.60;;;;;;4985603;28;20042;-84
2021/03/12 12:38:07;;;;;;;16.35;5.32;;;6.20;94.60;;;;;;4982372;28;20478;-84
2021/03/12 12:40:33;;;;;;;23.83;5.75;;;6.20;94.50;;;;;;4979241;28;20049;-83
2021/03/12 12:42:59;;;;;;;15.10;5.50;;;6.30;94.60;;;;;;4983526;28;20049;-83
2021/03/12 12:45:24;;;;;;;18.98;6.53;;;6.30;94.80;;;;;;4983899;28;20042;-83
2021/03/12 12:47:50;;;;;;;18.27;6.40;;;6.40;95.00;;;;;;4977694;28;20065;-86
2021/03/12 12:50:18;;;;;;;18.95;5.57;;;6.70;95.30;;;;;;4962803;28;20176;-84
2021/03/12 12:52:43;;;;;;;22.23;7.10;;;6.90;94.90;;;;;;4962706;28;20100;-83
2021/03/12 12:55:10;;;;;;;20.08;6.43;;;7.00;94.80;;;;;;4967793;28;20050;-84
2021/03/12 12:57:37;;;;;;;23.77;6.57;;;7.20;94.90;;;;;;4981417;28;20097;-85